Flight Track Log - Related Links

Times and Time Zones

All times are in EDT time to prevent confusion due to time zone crossing. See the N87CA flight status page for this flight to view local times or setup timezone preferences in your user account.

Time Position Orientation Groundspeed Altitude Reporting Facility
EDT Latitude Longitude Course Direction KTS MPH feet Rate Location/Type
Sun 12:51:49 PM 34.1000 -84.5167 68° East 155 178 5,000  Level Atlanta TRACON
Sun 12:52:49 PM 34.1167 -84.4667 68° East 173 199 5,800 694 Climbing Atlanta TRACON
Sun 12:53:50 PM 34.1500 -84.4167 51° Northeast 177 204 6,400 600 Climbing Atlanta TRACON
Sun 12:54:49 PM 34.1833 -84.3667 51° Northeast 178 205 7,000 478 Climbing Atlanta TRACON
Sun 12:55:43 PM 34.2000 -84.3167 68° East 179 206 7,300 200 Climbing Atlanta TRACON
Sun 12:56:49 PM 34.2500 -84.2667 40° Northeast 197 227 7,400 61 Climbing Atlanta TRACON
Sun 12:57:22 PM 34.2594 -84.2422 65° Northeast 198 228 7,400  Level Atlanta Center
Sun 12:58:22 PM 34.2931 -84.1897 52° Northeast 198 228 7,400  Level Atlanta Center
Sun 12:59:22 PM 34.3328 -84.1344 49° Northeast 219 252 7,400 50 Level Atlanta Center
Sun 01:00:22 PM 34.3683 -84.0842 49° Northeast 210 242 7,500  Climbing Atlanta Center
Sun 01:01:22 PM 34.4017 -84.0336 51° Northeast 192 221 7,400 -100 Descending Atlanta Center
Sun 01:02:22 PM 34.4350 -83.9858 50° Northeast 187 215 7,300  Descending Atlanta Center
Sun 01:03:22 PM 34.4725 -83.9406 45° Northeast 187 215 7,400  Climbing Atlanta Center
Sun 01:04:22 PM 34.5081 -83.8900 50° Northeast 187 215 7,300 -50 Descending Atlanta Center
Sun 01:05:22 PM 34.5414 -83.8422 50° Northeast 187 215 7,300 50 Level Atlanta Center
Sun 01:06:22 PM 34.5744 -83.7917 52° Northeast 187 215 7,400 50 Climbing Atlanta Center
Sun 01:07:22 PM 34.6100 -83.7408 50° Northeast 187 215 7,400 -50 Level Atlanta Center
Sun 01:08:22 PM 34.6433 -83.6953 48° Northeast 187 215 7,300 -50 Descending Atlanta Center
Sun 01:09:22 PM 34.6764 -83.6472 50° Northeast 187 215 7,300  Level Atlanta Center
Sun 01:10:22 PM 34.7117 -83.5992 48° Northeast 187 215 7,300 50 Level Atlanta Center
Sun 01:11:22 PM 34.7469 -83.5433 52° Northeast 182 209 7,400  Climbing Atlanta Center
Sun 01:12:22 PM 34.7844 -83.4925 48° Northeast 189 217 7,300  Descending Atlanta Center
Sun 01:13:22 PM 34.8197 -83.4392 51° Northeast 189 217 7,400  Climbing Atlanta Center
Sun 01:14:22 PM 34.8528 -83.3933 49° Northeast 188 216 7,300  Descending Atlanta Center
Sun 01:15:22 PM 34.8881 -83.3450 48° Northeast 183 211 7,400 50 Climbing Atlanta Center
Sun 01:16:22 PM 34.9189 -83.2967 52° Northeast 183 211 7,400  Level Atlanta Center
Sun 01:17:22 PM 34.9606 -83.2506 42° Northeast 183 211 7,400 -50 Level Atlanta Center
Sun 01:18:22 PM 34.9936 -83.2047 49° Northeast 190 219 7,300 -50 Descending Atlanta Center
Sun 01:19:22 PM 35.0267 -83.1586 49° Northeast 190 219 7,300 50 Level Atlanta Center
Sun 01:20:22 PM 35.0492 -83.1000 65° Northeast 185 213 7,400 50 Climbing Atlanta Center
Sun 01:21:22 PM 35.0717 -83.0414 65° Northeast 180 207 7,400  Level Atlanta Center
Sun 01:22:22 PM 35.1003 -82.9903 56° Northeast 188 216 7,400 -50 Level Atlanta Center
Sun 01:23:22 PM 35.1311 -82.9339 56° Northeast 188 216 7,300 -150 Descending Atlanta Center
Sun 01:24:22 PM 35.1597 -82.8753 59° Northeast 188 216 7,100 -250 Descending Atlanta Center
Sun 01:25:22 PM 35.1906 -82.8214 55° Northeast 188 216 6,800 -500 Descending Atlanta Center
Sun 01:26:22 PM 35.2214 -82.7728 52° Northeast 188 216 6,100 -750 Descending Atlanta Center
Sun 01:27:22 PM 35.2542 -82.7239 51° Northeast 183 211 5,300 -650 Descending Atlanta Center
Sun 01:28:22 PM 35.2956 -82.6825 39° Northeast 183 211 4,800 1,100 Descending Atlanta Center
Sun 01:29:22 PM 35.3219 -82.6183 63° Northeast 183 211 7,500 1,350 Climbing Atlanta Center
Sun 01:30:22 PM 35.3589 -82.5669 49° Northeast 183 211 7,500  Level Atlanta Center
Sun 01:32:00 PM 35.4333 -82.5333 48° Northeast  Level FlightAware Approximate
Sun 01:39:00 PM 35.4362 -82.5418 48° Northeast  Level Estimated
Sun 01:40:00 PM 35.4362 -82.5418 48° Northeast  Level Estimated
Sun 01:41:00 PM 35.4362 -82.5418 48° Northeast  Level Estimated
Sun 01:42:00 PM 35.4362 -82.5418 48° Northeast  Level Estimated
Sun 01:43:00 PM 35.4362 -82.5418 48° Northeast  Level Estimated
Sun 01:44:00 PM 35.4362 -82.5418 48° Northeast  Level Estimated

Login

Don't have an account? Register now (free) for customized features, flight alerts, and more!